Time;durP1;ratioP1;P1;durP2;ratioP2;P2;SDS_P1;SDS_P2;PMS_P1;PMS_P2;Temp;Humidity;BMP_temperature;BMP_pressure;BME280_temperature;BME280_humidity;BME280_pressure;Samples;Min_cycle;Max_cycle;Signal;HPM_P1;HPM_P2
2023/06/08 00:00:08;;;;;;;7.22;3.45;;;;;21.30;101804.00;;;;5087201;28;20214;-79
2023/06/08 00:02:36;;;;;;;5.70;4.00;;;;;21.30;101799.00;;;;5086136;28;20245;-78
2023/06/08 00:05:07;;;;;;;7.07;4.20;;;;;21.20;101799.00;;;;5086761;28;20218;-79
2023/06/08 00:07:34;;;;;;;5.90;3.85;;;;;21.20;101800.00;;;;5087066;28;20282;-78
2023/06/08 00:10:02;;;;;;;5.45;3.47;;;;;21.20;101788.00;;;;5086978;28;20202;-79
2023/06/08 00:12:29;;;;;;;7.75;3.58;;;;;21.20;101792.00;;;;5086350;28;20194;-77
2023/06/08 00:14:57;;;;;;;5.88;4.15;;;;;21.10;101790.00;;;;5086884;28;20289;-78
2023/06/08 00:17:24;;;;;;;6.03;4.07;;;;;21.10;101787.00;;;;5086844;28;20756;-78
2023/06/08 00:19:52;;;;;;;7.07;3.75;;;;;21.10;101790.00;;;;5087519;28;20253;-77
2023/06/08 00:22:21;;;;;;;5.65;3.78;;;;;21.00;101791.00;;;;5085539;28;20194;-78
2023/06/08 00:24:48;;;;;;;7.88;3.75;;;;;21.00;101798.00;;;;5087163;28;20202;-79
2023/06/08 00:27:16;;;;;;;8.13;3.88;;;;;21.00;101803.00;;;;5082725;28;20210;-78
2023/06/08 00:29:43;;;;;;;7.60;3.97;;;;;21.00;101793.00;;;;5086715;28;20672;-78
2023/06/08 00:32:10;;;;;;;5.75;3.65;;;;;20.90;101792.00;;;;5084412;28;20202;-78
2023/06/08 00:34:38;;;;;;;8.85;4.30;;;;;20.90;101793.00;;;;5086810;28;20703;-79
2023/06/08 00:37:05;;;;;;;6.18;3.88;;;;;20.90;101797.00;;;;5086431;28;20205;-78
2023/06/08 00:39:34;;;;;;;8.18;4.68;;;;;20.80;101794.00;;;;5081427;28;20190;-79
2023/06/08 00:42:01;;;;;;;9.02;4.28;;;;;20.80;101793.00;;;;5083093;28;20668;-78
2023/06/08 00:44:28;;;;;;;6.28;3.83;;;;;20.80;101782.00;;;;5088705;28;20573;-79
2023/06/08 00:46:56;;;;;;;4.85;3.67;;;;;20.80;101788.00;;;;5091825;28;20283;-78
2023/06/08 00:49:23;;;;;;;4.20;3.40;;;;;20.70;101784.00;;;;5090523;28;20201;-79
2023/06/08 00:51:51;;;;;;;5.90;3.42;;;;;20.70;101780.00;;;;5090525;28;20675;-79
2023/06/08 00:54:19;;;;;;;7.70;3.67;;;;;20.70;101786.00;;;;5091090;28;20210;-79
2023/06/08 00:56:48;;;;;;;5.63;3.45;;;;;20.60;101779.00;;;;5090810;28;20672;-78
2023/06/08 00:59:15;;;;;;;9.02;4.28;;;;;20.60;101785.00;;;;5091145;28;20635;-77
2023/06/08 01:01:44;;;;;;;7.80;4.45;;;;;20.60;101776.00;;;;5090966;28;20576;-78
2023/06/08 01:04:14;;;;;;;6.60;4.10;;;;;20.50;101769.00;;;;5089931;28;20205;-78
2023/06/08 01:06:46;;;;;;;6.82;4.18;;;;;20.50;101774.00;;;;5086862;28;20715;-78
2023/06/08 01:09:23;;;;;;;7.60;4.40;;;;;20.40;101769.00;;;;5091981;28;20198;-78
2023/06/08 01:12:06;;;;;;;6.45;4.07;;;;;20.40;101764.00;;;;5085824;28;20205;-77
2023/06/08 01:14:42;;;;;;;5.45;3.53;;;;;20.40;101761.00;;;;5089225;28;20193;-78
2023/06/08 01:17:14;;;;;;;9.48;4.18;;;;;20.40;101761.00;;;;5089734;28;20202;-78
2023/06/08 01:19:59;;;;;;;6.90;3.72;;;;;20.20;101764.00;;;;5089535;28;20574;-78
2023/06/08 01:22:34;;;;;;;6.70;4.03;;;;;20.20;101753.00;;;;5085007;28;20198;-78
2023/06/08 01:25:05;;;;;;;5.05;3.20;;;;;20.20;101760.00;;;;5089721;28;20197;-79
2023/06/08 01:27:36;;;;;;;6.63;3.83;;;;;20.20;101760.00;;;;5088277;28;20195;-78
2023/06/08 01:30:05;;;;;;;5.20;3.80;;;;;20.20;101759.00;;;;5064043;28;20197;-78
2023/06/08 01:32:32;;;;;;;7.38;3.95;;;;;20.10;101759.00;;;;5088279;28;20605;-78
2023/06/08 01:35:00;;;;;;;7.30;4.07;;;;;20.10;101759.00;;;;5089468;28;20288;-77
2023/06/08 01:37:34;;;;;;;7.88;4.45;;;;;20.00;101756.00;;;;5090279;28;20191;-77
2023/06/08 01:40:10;;;;;;;8.60;4.22;;;;;20.00;101763.00;;;;5089772;28;20205;-78
2023/06/08 01:42:38;;;;;;;7.03;3.90;;;;;20.00;101761.00;;;;5087020;28;20194;-78
2023/06/08 01:45:11;;;;;;;6.15;4.13;;;;;19.90;101751.00;;;;5090292;28;20197;-78
2023/06/08 01:47:41;;;;;;;7.55;4.22;;;;;19.90;101754.00;;;;5088666;28;20202;-78
2023/06/08 01:50:11;;;;;;;7.15;4.50;;;;;19.90;101753.00;;;;5089602;28;20198;-78
2023/06/08 01:52:41;;;;;;;8.40;5.20;;;;;19.80;101742.00;;;;5088815;28;20206;-78
2023/06/08 01:55:16;;;;;;;6.57;4.40;;;;;19.70;101746.00;;;;5089362;28;20230;-78
2023/06/08 01:57:44;;;;;;;5.72;3.83;;;;;19.80;101753.00;;;;5089101;28;20201;-78
2023/06/08 02:00:13;;;;;;;7.55;4.15;;;;;19.70;101744.00;;;;5084945;28;20294;-79
2023/06/08 02:02:40;;;;;;;7.82;3.88;;;;;19.70;101738.00;;;;5087656;28;20198;-78
2023/06/08 02:05:11;;;;;;;11.30;3.92;;;;;19.70;101747.00;;;;5084993;28;20203;-78
2023/06/08 02:07:38;;;;;;;6.60;3.80;;;;;19.70;101751.00;;;;5086655;28;20205;-79
2023/06/08 02:10:07;;;;;;;7.32;3.83;;;;;19.70;101746.00;;;;5088972;28;20663;-78
2023/06/08 02:12:36;;;;;;;7.78;4.95;;;;;19.60;101746.00;;;;5084016;28;20198;-78
2023/06/08 02:15:03;;;;;;;7.22;4.10;;;;;19.60;101742.00;;;;5088388;28;20198;-78
2023/06/08 02:17:33;;;;;;;7.15;4.25;;;;;19.60;101751.00;;;;5088553;28;20195;-79
2023/06/08 02:20:05;;;;;;;5.60;4.10;;;;;19.60;101740.00;;;;5088329;28;20921;-78
2023/06/08 02:22:32;;;;;;;8.30;4.20;;;;;19.60;101741.00;;;;5086847;28;20190;-78
2023/06/08 02:25:00;;;;;;;6.30;4.13;;;;;19.60;101740.00;;;;5088973;28;20190;-78
2023/06/08 02:27:27;;;;;;;9.45;4.20;;;;;19.50;101734.00;;;;5088234;28;20703;-77
2023/06/08 02:29:56;;;;;;;6.45;4.13;;;;;19.50;101740.00;;;;5088911;28;20587;-78
2023/06/08 02:32:24;;;;;;;8.48;4.00;;;;;19.50;101738.00;;;;5088005;28;20214;-78
2023/06/08 02:34:55;;;;;;;8.90;4.57;;;;;19.50;101740.00;;;;5085841;28;20201;-78
2023/06/08 02:37:23;;;;;;;6.88;4.40;;;;;19.50;101742.00;;;;5088598;28;20249;-79
2023/06/08 02:39:51;;;;;;;7.45;3.70;;;;;19.40;101743.00;;;;5088290;28;20248;-78
2023/06/08 02:42:19;;;;;;;7.05;4.05;;;;;19.40;101737.00;;;;5087476;28;20199;-78
2023/06/08 02:44:46;;;;;;;7.22;3.75;;;;;19.40;101736.00;;;;5087969;28;20194;-77
2023/06/08 02:47:16;;;;;;;7.30;4.35;;;;;19.30;101736.00;;;;5081898;28;20218;-78
2023/06/08 02:49:43;;;;;;;6.07;4.47;;;;;19.30;101723.00;;;;5089459;28;20205;-78
2023/06/08 02:52:11;;;;;;;8.98;4.72;;;;;19.30;101736.00;;;;5087815;28;20213;-78
2023/06/08 02:54:38;;;;;;;7.85;4.15;;;;;19.20;101735.00;;;;5086661;28;20668;-77
2023/06/08 02:57:06;;;;;;;6.55;4.13;;;;;19.20;101733.00;;;;5088229;28;20203;-78
2023/06/08 02:59:36;;;;;;;8.93;5.43;;;;;19.20;101732.00;;;;5089383;28;20214;-78
2023/06/08 03:02:04;;;;;;;8.77;4.68;;;;;19.10;101729.00;;;;5089097;28;20226;-78
2023/06/08 03:04:33;;;;;;;10.32;5.70;;;;;19.10;101725.00;;;;5088766;28;20735;-78
2023/06/08 03:07:01;;;;;;;6.50;4.88;;;;;19.10;101726.00;;;;5083066;28;20218;-78
2023/06/08 03:09:29;;;;;;;7.38;4.15;;;;;19.00;101726.00;;;;5087959;28;20226;-78
2023/06/08 03:11:57;;;;;;;6.72;4.07;;;;;19.00;101733.00;;;;5089174;28;20202;-78
2023/06/08 03:14:28;;;;;;;8.40;4.75;;;;;19.00;101722.00;;;;5088094;28;20198;-78
2023/06/08 03:16:56;;;;;;;4.53;4.00;;;;;18.90;101729.00;;;;5087837;28;20202;-78
2023/06/08 03:19:23;;;;;;;7.80;4.93;;;;;18.90;101724.00;;;;5087789;28;20202;-78
2023/06/08 03:21:53;;;;;;;6.75;4.63;;;;;18.90;101723.00;;;;5087838;28;20194;-78
2023/06/08 03:24:20;;;;;;;9.75;5.03;;;;;18.90;101721.00;;;;5088075;28;20248;-78
2023/06/08 03:26:47;;;;;;;7.28;4.78;;;;;18.90;101727.00;;;;5087735;28;20222;-78
2023/06/08 03:29:15;;;;;;;6.97;4.72;;;;;18.80;101729.00;;;;5087268;28;20194;-78
2023/06/08 03:31:42;;;;;;;7.57;4.50;;;;;18.80;101730.00;;;;5080139;28;20201;-78
2023/06/08 03:34:09;;;;;;;9.93;5.47;;;;;18.80;101726.00;;;;5087573;28;20214;-77
2023/06/08 03:36:38;;;;;;;8.68;5.10;;;;;18.80;101728.00;;;;5086485;28;20202;-78
2023/06/08 03:39:07;;;;;;;8.55;4.55;;;;;18.80;101719.00;;;;5087218;28;20290;-78
2023/06/08 03:41:34;;;;;;;9.68;4.80;;;;;18.80;101730.00;;;;5087916;28;20194;-78
2023/06/08 03:44:02;;;;;;;7.05;5.03;;;;;18.80;101723.00;;;;5087492;28;20711;-78
2023/06/08 03:46:29;;;;;;;7.32;4.60;;;;;18.80;101724.00;;;;5084986;28;20295;-78
2023/06/08 03:48:56;;;;;;;7.35;5.35;;;;;18.80;101726.00;;;;5086924;28;20741;-78
2023/06/08 03:51:25;;;;;;;7.07;5.07;;;;;18.80;101720.00;;;;5086622;28;20195;-78
2023/06/08 03:53:52;;;;;;;8.27;5.60;;;;;18.80;101717.00;;;;5080053;28;20193;-78
2023/06/08 03:56:21;;;;;;;8.65;5.18;;;;;18.80;101726.00;;;;5086050;28;20198;-78
2023/06/08 03:58:51;;;;;;;7.93;5.45;;;;;18.80;101720.00;;;;5086518;28;20194;-79
2023/06/08 04:01:22;;;;;;;10.20;5.40;;;;;18.80;101725.00;;;;5086213;28;20201;-78
2023/06/08 04:03:49;;;;;;;8.05;5.57;;;;;18.80;101719.00;;;;5087021;28;20200;-77
2023/06/08 04:06:16;;;;;;;6.57;5.03;;;;;18.80;101734.00;;;;5086965;28;20244;-78
2023/06/08 04:08:44;;;;;;;7.90;5.63;;;;;18.80;101745.00;;;;5084929;28;20200;-79
2023/06/08 04:11:12;;;;;;;6.63;5.22;;;;;18.80;101732.00;;;;5086796;28;20222;-78
2023/06/08 04:13:42;;;;;;;6.80;4.97;;;;;18.80;101729.00;;;;5086312;28;20847;-78
2023/06/08 04:16:10;;;;;;;8.75;6.40;;;;;18.80;101720.00;;;;5087015;28;20198;-78
2023/06/08 04:18:39;;;;;;;8.93;5.38;;;;;18.80;101722.00;;;;5087229;28;20205;-78
2023/06/08 04:21:07;;;;;;;7.35;5.47;;;;;18.80;101728.00;;;;5090614;28;20243;-78
2023/06/08 04:23:35;;;;;;;7.47;5.88;;;;;18.80;101727.00;;;;5091138;28;20202;-78
2023/06/08 04:26:03;;;;;;;8.00;6.45;;;;;18.80;101723.00;;;;5090706;28;20201;-78
2023/06/08 04:28:30;;;;;;;8.57;6.30;;;;;18.80;101724.00;;;;5086098;28;20194;-79
2023/06/08 04:30:59;;;;;;;8.60;5.97;;;;;18.80;101723.00;;;;5091000;28;20205;-79
2023/06/08 04:33:27;;;;;;;9.07;6.82;;;;;18.80;101720.00;;;;5090102;28;20225;-78
2023/06/08 04:35:54;;;;;;;9.68;6.22;;;;;18.70;101710.00;;;;5090852;28;20206;-77
2023/06/08 04:38:22;;;;;;;11.07;6.53;;;;;18.70;101717.00;;;;5089737;28;20587;-77
2023/06/08 04:40:52;;;;;;;9.25;6.57;;;;;18.70;101719.00;;;;5090071;28;20223;-78
2023/06/08 04:43:20;;;;;;;8.38;5.93;;;;;18.70;101723.00;;;;5090268;28;20229;-78
2023/06/08 04:45:51;;;;;;;8.48;5.88;;;;;18.70;101714.00;;;;5091036;28;20205;-78
2023/06/08 04:48:20;;;;;;;6.90;5.78;;;;;18.70;101714.00;;;;5089753;28;20254;-77
2023/06/08 04:50:50;;;;;;;10.52;6.70;;;;;18.70;101715.00;;;;5090432;28;20210;-78
2023/06/08 04:53:17;;;;;;;10.95;6.75;;;;;18.70;101711.00;;;;5090018;28;20202;-77
2023/06/08 04:55:45;;;;;;;8.70;7.05;;;;;18.70;101716.00;;;;5090726;28;20198;-78
2023/06/08 04:58:13;;;;;;;10.15;6.85;;;;;18.70;101705.00;;;;5090354;28;20206;-78
2023/06/08 05:00:40;;;;;;;11.55;6.63;;;;;18.80;101705.00;;;;5087553;28;20229;-78
2023/06/08 05:03:08;;;;;;;8.98;6.90;;;;;18.80;101706.00;;;;5085329;28;20679;-78
2023/06/08 05:05:36;;;;;;;9.90;7.43;;;;;18.80;101715.00;;;;5080245;28;20216;-78
2023/06/08 05:08:04;;;;;;;8.85;6.28;;;;;18.90;101711.00;;;;5087391;28;20226;-78
2023/06/08 05:10:31;;;;;;;11.40;6.90;;;;;18.90;101716.00;;;;5089367;28;20960;-78
2023/06/08 05:12:59;;;;;;;12.07;7.03;;;;;18.90;101707.00;;;;5089781;28;20221;-78
2023/06/08 05:15:26;;;;;;;9.65;6.47;;;;;19.00;101713.00;;;;5089118;28;20221;-78
2023/06/08 05:17:55;;;;;;;10.23;6.57;;;;;19.00;101711.00;;;;5090410;28;20194;-79
2023/06/08 05:20:23;;;;;;;13.60;7.22;;;;;19.10;101709.00;;;;5088526;28;20734;-78
2023/06/08 05:22:52;;;;;;;8.05;6.82;;;;;19.10;101703.00;;;;5087903;28;20675;-78
2023/06/08 05:25:20;;;;;;;8.80;6.03;;;;;19.20;101717.00;;;;5086349;28;20206;-79
2023/06/08 05:27:47;;;;;;;10.15;6.93;;;;;19.30;101712.00;;;;5076010;28;20594;-78
2023/06/08 05:30:15;;;;;;;8.70;7.30;;;;;19.30;101722.00;;;;5088598;28;20190;-79
2023/06/08 05:32:42;;;;;;;8.60;6.95;;;;;19.40;101712.00;;;;5090262;28;20601;-78
2023/06/08 05:35:10;;;;;;;11.20;6.90;;;;;19.40;101716.00;;;;5086961;28;20672;-77
2023/06/08 05:37:37;;;;;;;11.23;7.63;;;;;19.40;101716.00;;;;5088747;28;20263;-78
2023/06/08 05:40:07;;;;;;;10.93;7.32;;;;;19.40;101714.00;;;;5088496;28;20207;-78
2023/06/08 05:42:35;;;;;;;9.57;6.57;;;;;19.50;101716.00;;;;5088498;28;20206;-78
2023/06/08 05:45:02;;;;;;;9.77;7.05;;;;;19.50;101708.00;;;;5090372;28;20920;-79
2023/06/08 05:47:29;;;;;;;7.97;6.60;;;;;19.50;101711.00;;;;5089693;28;20711;-80
2023/06/08 05:49:56;;;;;;;9.23;6.45;;;;;19.50;101711.00;;;;5088829;28;20198;-80
2023/06/08 05:52:24;;;;;;;10.43;7.03;;;;;19.50;101705.00;;;;5087297;28;20198;-79
2023/06/08 05:54:51;;;;;;;14.43;6.90;;;;;19.60;101697.00;;;;5089376;28;20198;-79
2023/06/08 05:57:21;;;;;;;8.93;6.30;;;;;19.60;101698.00;;;;5089929;28;20194;-79
2023/06/08 05:59:48;;;;;;;9.57;6.15;;;;;19.60;101699.00;;;;5085923;28;20726;-79
2023/06/08 06:02:16;;;;;;;15.32;6.20;;;;;19.60;101689.00;;;;5087533;28;20247;-78
2023/06/08 06:04:44;;;;;;;8.77;6.10;;;;;19.60;101692.00;;;;5088557;28;20225;-81
2023/06/08 06:07:11;;;;;;;7.03;6.32;;;;;19.70;101695.00;;;;5089668;28;20222;-81
2023/06/08 06:09:38;;;;;;;9.02;6.00;;;;;19.70;101692.00;;;;5089378;28;20205;-80
2023/06/08 06:12:08;;;;;;;9.00;6.22;;;;;19.70;101691.00;;;;5089416;28;20191;-78
2023/06/08 06:14:40;;;;;;;7.55;5.82;;;;;19.70;101693.00;;;;5085765;28;20263;-78
2023/06/08 06:17:08;;;;;;;8.27;6.13;;;;;19.80;101694.00;;;;5084439;28;20579;-80
2023/06/08 06:19:37;;;;;;;9.32;6.03;;;;;19.80;101692.00;;;;5087592;28;20723;-78
2023/06/08 06:22:06;;;;;;;7.07;5.28;;;;;19.90;101694.00;;;;5087448;28;22009;-77
2023/06/08 06:24:33;;;;;;;7.45;5.68;;;;;19.90;101698.00;;;;5087427;28;20225;-78
2023/06/08 06:27:01;;;;;;;10.75;5.75;;;;;20.00;101699.00;;;;5085801;28;20229;-78
2023/06/08 06:29:28;;;;;;;8.50;5.25;;;;;20.00;101699.00;;;;5088689;28;20213;-78
2023/06/08 06:31:57;;;;;;;10.38;6.20;;;;;20.00;101696.00;;;;5087030;28;20194;-78
2023/06/08 06:34:24;;;;;;;8.05;5.43;;;;;20.10;101696.00;;;;5087033;28;20232;-78
2023/06/08 06:36:52;;;;;;;13.90;6.15;;;;;20.10;101699.00;;;;5088401;28;20198;-79
2023/06/08 06:39:19;;;;;;;10.82;5.43;;;;;20.10;101701.00;;;;5088127;28;20577;-77
2023/06/08 06:41:47;;;;;;;8.05;5.38;;;;;20.20;101703.00;;;;5084443;28;20202;-79
2023/06/08 06:44:14;;;;;;;6.40;5.70;;;;;20.20;101700.00;;;;5084990;28;20207;-78
2023/06/08 06:46:42;;;;;;;9.88;5.63;;;;;20.30;101711.00;;;;5088108;28;20205;-78
2023/06/08 06:49:11;;;;;;;9.32;6.15;;;;;20.30;101705.00;;;;5084954;28;20210;-80
2023/06/08 06:51:40;;;;;;;9.07;6.15;;;;;20.40;101702.00;;;;5087344;28;20210;-80
2023/06/08 06:54:07;;;;;;;8.80;5.68;;;;;20.50;101709.00;;;;5087066;28;20186;-80
2023/06/08 06:56:35;;;;;;;8.30;5.65;;;;;20.60;101708.00;;;;5086519;28;20587;-80
2023/06/08 06:59:03;;;;;;;8.68;5.10;;;;;20.60;101717.00;;;;5084651;28;20947;-81
2023/06/08 07:01:35;;;;;;;5.80;4.95;;;;;20.70;101708.00;;;;5087307;28;20194;-81
2023/06/08 07:04:03;;;;;;;6.90;5.47;;;;;20.80;101709.00;;;;5081759;28;20198;-81
2023/06/08 07:06:32;;;;;;;8.02;5.57;;;;;20.90;101715.00;;;;5086048;28;20202;-80
2023/06/08 07:09:00;;;;;;;12.23;5.90;;;;;21.00;101703.00;;;;5082181;28;20699;-80
2023/06/08 07:11:27;;;;;;;8.07;5.55;;;;;21.20;101705.00;;;;5087265;28;20202;-80
2023/06/08 07:13:54;;;;;;;6.75;5.65;;;;;21.20;101706.00;;;;5081334;28;20201;-80
2023/06/08 07:16:22;;;;;;;8.38;5.10;;;;;21.30;101704.00;;;;5087055;28;20195;-80
2023/06/08 07:18:50;;;;;;;7.07;5.43;;;;;21.40;101704.00;;;;5083148;28;20247;-80
2023/06/08 07:21:20;;;;;;;7.75;5.30;;;;;21.60;101708.00;;;;5083877;28;20198;-80
2023/06/08 07:23:49;;;;;;;11.80;5.45;;;;;21.60;101713.00;;;;5085934;28;20190;-80
2023/06/08 07:26:16;;;;;;;8.07;4.53;;;;;21.70;101706.00;;;;5081547;28;20202;-81
2023/06/08 07:28:45;;;;;;;7.90;5.05;;;;;21.80;101710.00;;;;5084757;28;20226;-80
2023/06/08 07:31:12;;;;;;;9.05;5.07;;;;;21.90;101712.00;;;;5080863;28;20198;-81
2023/06/08 07:33:40;;;;;;;6.55;4.97;;;;;22.00;101710.00;;;;5084172;28;20300;-81
2023/06/08 07:36:07;;;;;;;8.63;5.60;;;;;22.10;101712.00;;;;5077222;28;20230;-82
2023/06/08 07:38:35;;;;;;;9.55;5.32;;;;;22.20;101708.00;;;;5079594;28;20206;-81
2023/06/08 07:41:04;;;;;;;9.90;5.43;;;;;22.40;101709.00;;;;5080157;28;20359;-81
2023/06/08 07:43:31;;;;;;;8.60;5.40;;;;;22.50;101712.00;;;;5075275;28;20203;-81
2023/06/08 07:45:59;;;;;;;8.93;5.43;;;;;22.60;101717.00;;;;5077169;28;20206;-81
2023/06/08 07:48:26;;;;;;;5.93;5.10;;;;;22.70;101713.00;;;;5078881;28;20284;-81
2023/06/08 07:50:54;;;;;;;7.72;5.18;;;;;22.80;101709.00;;;;5077063;28;20227;-81
2023/06/08 07:53:22;;;;;;;7.38;5.22;;;;;23.00;101712.00;;;;5078612;28;20734;-81
2023/06/08 07:55:49;;;;;;;10.57;5.55;;;;;23.10;101712.00;;;;5083061;28;20205;-81
2023/06/08 07:58:18;;;;;;;9.40;6.18;;;;;23.20;101717.00;;;;5085460;28;20567;-82
2023/06/08 08:00:45;;;;;;;8.63;5.55;;;;;23.30;101706.00;;;;5077371;28;20746;-81
2023/06/08 08:03:13;;;;;;;14.35;5.72;;;;;23.50;101708.00;;;;5079824;28;20213;-81
2023/06/08 08:05:40;;;;;;;7.93;4.95;;;;;23.60;101704.00;;;;5075567;28;20206;-81
2023/06/08 08:08:07;;;;;;;11.20;5.78;;;;;23.80;101708.00;;;;5084195;28;20269;-79
2023/06/08 08:10:35;;;;;;;7.80;5.03;;;;;23.90;101705.00;;;;5084743;28;20205;-80
2023/06/08 08:13:02;;;;;;;6.70;4.82;;;;;24.00;101699.00;;;;5077756;28;20201;-80
2023/06/08 08:15:31;;;;;;;8.05;5.75;;;;;24.10;101704.00;;;;5084379;28;20190;-80
2023/06/08 08:17:58;;;;;;;6.85;5.85;;;;;24.20;101707.00;;;;5082767;28;20206;-81
2023/06/08 08:20:25;;;;;;;6.60;4.97;;;;;24.30;101707.00;;;;5083033;28;20194;-80
2023/06/08 08:22:53;;;;;;;8.70;5.28;;;;;24.40;101703.00;;;;5082997;28;20194;-80
2023/06/08 08:25:20;;;;;;;7.30;5.50;;;;;24.50;101704.00;;;;5077571;28;20202;-82
2023/06/08 08:27:47;;;;;;;6.00;5.15;;;;;24.60;101706.00;;;;5081398;28;20249;-81
2023/06/08 08:30:15;;;;;;;7.75;4.80;;;;;24.70;101704.00;;;;5084833;28;20198;-80
2023/06/08 08:32:44;;;;;;;9.15;5.30;;;;;24.80;101713.00;;;;5082064;28;20226;-81
2023/06/08 08:35:11;;;;;;;7.45;4.97;;;;;24.90;101702.00;;;;5079140;28;20191;-80
2023/06/08 08:37:40;;;;;;;8.55;5.80;;;;;25.00;101714.00;;;;5079262;28;20576;-80
2023/06/08 08:40:09;;;;;;;7.03;5.50;;;;;25.10;101709.00;;;;5085566;28;20642;-81
2023/06/08 08:42:44;;;;;;;7.78;4.93;;;;;25.10;101704.00;;;;5078874;28;20203;-81
2023/06/08 08:45:16;;;;;;;6.85;5.47;;;;;25.20;101709.00;;;;5083630;28;20213;-80
2023/06/08 08:47:45;;;;;;;8.93;4.70;;;;;25.30;101707.00;;;;5059740;28;20210;-81
2023/06/08 08:50:16;;;;;;;6.75;4.75;;;;;25.40;101709.00;;;;5085480;28;20198;-80
2023/06/08 08:52:46;;;;;;;6.40;5.00;;;;;25.40;101709.00;;;;5076878;28;20191;-80
2023/06/08 08:55:13;;;;;;;7.00;4.72;;;;;25.50;101707.00;;;;5072975;28;20199;-81
2023/06/08 08:57:41;;;;;;;6.43;5.22;;;;;25.50;101712.00;;;;5075701;28;20187;-81
2023/06/08 09:00:10;;;;;;;8.27;5.18;;;;;25.50;101711.00;;;;5074937;28;20225;-81
2023/06/08 09:02:37;;;;;;;9.68;5.80;;;;;25.50;101716.00;;;;5074401;28;20199;-80
2023/06/08 09:05:06;;;;;;;10.18;4.82;;;;;25.40;101707.00;;;;5079259;28;20191;-81
2023/06/08 09:07:35;;;;;;;8.38;5.65;;;;;25.40;101711.00;;;;5083123;28;20198;-80
2023/06/08 09:10:19;;;;;;;7.82;5.57;;;;;25.30;101717.00;;;;5086173;28;20198;-81
2023/06/08 09:12:48;;;;;;;9.65;5.25;;;;;25.30;101711.00;;;;5085641;28;20194;-81
2023/06/08 09:15:26;;;;;;;8.98;5.53;;;;;25.20;101714.00;;;;5086904;28;20214;-80
2023/06/08 09:17:54;;;;;;;9.27;5.53;;;;;25.20;101710.00;;;;5081685;28;20654;-81
2023/06/08 09:20:30;;;;;;;7.45;5.50;;;;;25.10;101711.00;;;;5086475;28;20195;-80
2023/06/08 09:22:57;;;;;;;8.35;5.30;;;;;25.20;101710.00;;;;5087952;28;20567;-80
2023/06/08 09:25:38;;;;;;;6.45;4.72;;;;;25.10;101703.00;;;;5088401;28;20967;-80
2023/06/08 09:28:16;;;;;;;8.18;5.45;;;;;25.10;101708.00;;;;5088119;28;20217;-80
2023/06/08 09:30:44;;;;;;;7.20;4.95;;;;;25.20;101701.00;;;;5078986;28;20199;-80
2023/06/08 09:33:20;;;;;;;9.07;4.80;;;;;25.20;101698.00;;;;5079632;28;20672;-80
2023/06/08 09:35:49;;;;;;;8.25;5.05;;;;;25.20;101702.00;;;;5083306;28;20209;-81
2023/06/08 09:38:18;;;;;;;9.85;5.55;;;;;25.20;101706.00;;;;5081253;28;20195;-80
2023/06/08 09:40:47;;;;;;;7.07;5.13;;;;;25.20;101697.00;;;;5083708;28;20190;-81
2023/06/08 09:43:29;;;;;;;8.13;4.90;;;;;25.30;101692.00;;;;5082343;28;20198;-81
2023/06/08 09:45:56;;;;;;;7.72;5.32;;;;;25.30;101689.00;;;;5081891;28;20202;-81
2023/06/08 09:48:24;;;;;;;7.60;5.15;;;;;25.40;101687.00;;;;5083576;28;20247;-80
2023/06/08 09:50:57;;;;;;;7.82;5.05;;;;;25.40;101685.00;;;;5070173;28;20194;-81
2023/06/08 09:53:25;;;;;;;8.48;5.63;;;;;25.40;101685.00;;;;5079341;28;20199;-80
2023/06/08 09:55:54;;;;;;;9.45;5.35;;;;;25.40;101685.00;;;;5082108;28;20277;-81
2023/06/08 09:58:25;;;;;;;6.93;5.13;;;;;25.50;101690.00;;;;5075873;28;20311;-82
2023/06/08 10:00:56;;;;;;;9.52;5.20;;;;;25.50;101692.00;;;;5082200;28;20582;-81
2023/06/08 10:03:30;;;;;;;7.00;4.88;;;;;25.60;101686.00;;;;5078009;28;20302;-82
2023/06/08 10:06:00;;;;;;;7.03;4.38;;;;;25.60;101690.00;;;;5085659;28;20199;-82
2023/06/08 10:08:28;;;;;;;6.68;3.88;;;;;25.60;101690.00;;;;5086114;28;20568;-82
2023/06/08 10:10:57;;;;;;;10.30;4.88;;;;;25.70;101687.00;;;;5078164;28;20280;-81
2023/06/08 10:13:25;;;;;;;9.27;4.60;;;;;25.80;101696.00;;;;5078744;28;20190;-81
2023/06/08 10:15:53;;;;;;;7.85;4.85;;;;;25.90;101689.00;;;;5086153;28;20194;-81
2023/06/08 10:18:21;;;;;;;11.07;5.20;;;;;26.00;101684.00;;;;5080027;28;20194;-83
2023/06/08 10:20:49;;;;;;;8.18;5.05;;;;;26.00;101685.00;;;;5087770;28;20573;-82
2023/06/08 10:23:19;;;;;;;7.75;5.18;;;;;26.10;101681.00;;;;5084943;28;20205;-80
2023/06/08 10:25:49;;;;;;;9.35;5.38;;;;;26.10;101674.00;;;;5080326;28;20293;-82
2023/06/08 10:28:20;;;;;;;6.90;4.68;;;;;26.20;101673.00;;;;5081218;28;20695;-81
2023/06/08 10:30:47;;;;;;;7.05;4.45;;;;;26.30;101678.00;;;;5079616;28;20191;-81
2023/06/08 10:33:16;;;;;;;6.07;4.13;;;;;26.30;101681.00;;;;5076178;28;20223;-81
2023/06/08 10:36:02;;;;;;;8.07;5.05;;;;;26.30;101681.00;;;;5077461;28;20745;-81
2023/06/08 10:38:36;;;;;;;7.50;5.00;;;;;26.30;101682.00;;;;5080903;28;20199;-81
2023/06/08 10:41:05;;;;;;;8.50;4.90;;;;;26.40;101669.00;;;;5077714;28;20743;-80
2023/06/08 10:43:33;;;;;;;7.72;4.75;;;;;26.40;101668.00;;;;5079351;28;20218;-81
2023/06/08 10:46:00;;;;;;;7.68;4.22;;;;;26.50;101670.00;;;;5079254;28;20209;-81
2023/06/08 10:48:37;;;;;;;9.93;4.25;;;;;26.50;101663.00;;;;5078094;28;20226;-82
2023/06/08 10:51:09;;;;;;;8.27;5.05;;;;;26.70;101652.00;;;;5077729;28;20194;-81
2023/06/08 10:53:56;;;;;;;7.18;3.80;;;;;26.90;101654.00;;;;5077231;28;20749;-80
2023/06/08 10:56:27;;;;;;;8.02;4.65;;;;;27.00;101660.00;;;;5077867;28;20225;-81
2023/06/08 10:58:55;;;;;;;8.52;4.68;;;;;27.20;101656.00;;;;5079822;28;20308;-83
2023/06/08 11:01:30;;;;;;;5.57;4.07;;;;;27.30;101657.00;;;;5080065;28;20218;-82
2023/06/08 11:04:00;;;;;;;6.70;4.82;;;;;27.40;101652.00;;;;5077686;28;20208;-83
2023/06/08 11:06:30;;;;;;;18.10;4.90;;;;;27.50;101649.00;;;;5081007;28;20195;-85
2023/06/08 11:09:02;;;;;;;6.55;4.78;;;;;27.70;101649.00;;;;5078864;28;20228;-82
2023/06/08 11:11:31;;;;;;;5.80;4.07;;;;;27.80;101641.00;;;;5081605;28;20206;-84
2023/06/08 11:14:00;;;;;;;5.40;4.50;;;;;28.00;101633.00;;;;5076993;28;20210;-84
2023/06/08 11:16:28;;;;;;;8.98;4.70;;;;;28.10;101634.00;;;;5083737;28;20226;-85
2023/06/08 11:18:55;;;;;;;7.45;4.90;;;;;28.30;101638.00;;;;5083870;28;20206;-83
2023/06/08 11:21:24;;;;;;;8.73;4.50;;;;;28.40;101625.00;;;;5082018;28;20214;-85
2023/06/08 11:23:51;;;;;;;7.15;4.78;;;;;28.50;101627.00;;;;5081436;28;20202;-84
2023/06/08 11:26:22;;;;;;;5.72;4.70;;;;;28.60;101626.00;;;;5084772;28;20205;-84
2023/06/08 11:28:50;;;;;;;6.60;4.15;;;;;28.60;101619.00;;;;5082169;28;20229;-84
2023/06/08 11:31:18;;;;;;;6.35;4.40;;;;;28.70;101618.00;;;;5079233;28;20285;-83
2023/06/08 11:33:49;;;;;;;6.05;4.28;;;;;28.70;101614.00;;;;5084820;28;20233;-81
2023/06/08 11:36:17;;;;;;;10.35;4.53;;;;;28.80;101607.00;;;;5082944;28;20280;-80
2023/06/08 11:38:44;;;;;;;6.63;3.83;;;;;28.90;101602.00;;;;5083289;28;20198;-85
2023/06/08 11:41:11;;;;;;;8.10;4.35;;;;;29.00;101604.00;;;;5085665;28;20198;-85
2023/06/08 11:43:40;;;;;;;5.97;4.30;;;;;29.00;101597.00;;;;5084080;28;20576;-79
2023/06/08 11:46:07;;;;;;;6.63;4.13;;;;;29.10;101594.00;;;;5084247;28;20201;-82
2023/06/08 11:48:35;;;;;;;6.15;3.92;;;;;29.20;101602.00;;;;5085945;28;20309;-82
2023/06/08 11:51:02;;;;;;;8.35;4.97;;;;;29.20;101593.00;;;;5085403;28;20198;-84
2023/06/08 11:53:30;;;;;;;3.97;3.58;;;;;29.30;101591.00;;;;5086717;28;20197;-83
2023/06/08 11:55:57;;;;;;;7.07;3.92;;;;;29.30;101593.00;;;;5086241;28;20193;-83
2023/06/08 11:58:26;;;;;;;5.78;3.95;;;;;29.40;101589.00;;;;5083332;28;20199;-83
2023/06/08 12:01:05;;;;;;;4.95;4.10;;;;;29.40;101588.00;;;;5082703;28;20221;-82
2023/06/08 12:03:33;;;;;;;4.70;4.07;;;;;29.50;101585.00;;;;5084865;28;20201;-81
2023/06/08 12:06:01;;;;;;;5.45;3.92;;;;;29.60;101580.00;;;;5087098;28;20612;-81
2023/06/08 12:08:28;;;;;;;8.00;4.32;;;;;29.60;101576.00;;;;5079127;28;20194;-83
2023/06/08 12:10:55;;;;;;;7.00;4.05;;;;;29.70;101564.00;;;;5084359;28;20201;-81
2023/06/08 12:13:24;;;;;;;7.05;4.35;;;;;29.70;101570.00;;;;5084602;28;20204;-83